createdAt,value
2022-12-01T00:01:37.498Z,84.93
2022-12-01T00:04:05.911Z,86.03
2022-12-01T00:06:35.933Z,86.30
2022-12-01T00:09:22.522Z,86.11
2022-12-01T00:11:57.444Z,85.04
2022-12-01T00:14:26.574Z,85.59
2022-12-01T00:16:54.714Z,86.06
2022-12-01T00:19:26.154Z,86.13
2022-12-01T00:21:56.144Z,86.11
2022-12-01T00:24:25.403Z,86.79
2022-12-01T00:26:54.436Z,87.03
2022-12-01T00:29:23.770Z,86.96
2022-12-01T00:31:53.855Z,87.07
2022-12-01T00:34:24.451Z,87.12
2022-12-01T00:36:54.556Z,87.17
2022-12-01T00:39:22.652Z,87.34
2022-12-01T00:41:50.654Z,87.27
2022-12-01T00:44:18.653Z,87.26
2022-12-01T00:46:48.059Z,87.54
2022-12-01T00:49:19.061Z,87.35
2022-12-01T00:51:52.041Z,87.40
2022-12-01T00:54:23.121Z,87.55
2022-12-01T00:56:52.172Z,87.34
2022-12-01T00:59:24.091Z,87.39
2022-12-01T01:01:55.447Z,87.52
2022-12-01T01:04:25.728Z,87.19
2022-12-01T01:06:53.726Z,86.85
2022-12-01T01:09:21.735Z,87.04
2022-12-01T01:11:55.080Z,87.39
2022-12-01T01:14:24.925Z,87.53
2022-12-01T01:16:57.424Z,88.29
2022-12-01T01:19:25.399Z,88.65
2022-12-01T01:21:53.364Z,88.77
2022-12-01T01:24:22.360Z,88.76
2022-12-01T01:26:51.279Z,88.91
2022-12-01T01:29:20.259Z,89.12
2022-12-01T01:31:48.527Z,89.27
2022-12-01T01:34:18.838Z,89.36
2022-12-01T01:36:46.840Z,89.03
2022-12-01T01:39:15.940Z,89.02
2022-12-01T01:41:44.000Z,89.08
2022-12-01T01:44:54.543Z,88.75
2022-12-01T01:47:27.587Z,88.60
2022-12-01T01:50:06.652Z,88.26
2022-12-01T01:52:36.720Z,87.90
2022-12-01T01:55:04.988Z,87.68
2022-12-01T01:57:35.134Z,87.63
2022-12-01T02:03:47.341Z,86.81
2022-12-01T02:06:18.148Z,86.72
2022-12-01T02:08:46.152Z,86.82
2022-12-01T02:11:48.727Z,86.90
2022-12-01T02:14:35.189Z,87.05
2022-12-01T02:17:10.922Z,87.18
2022-12-01T02:20:03.863Z,86.88
2022-12-01T02:22:42.974Z,86.90
2022-12-01T02:25:21.656Z,87.01
2022-12-01T02:28:14.727Z,86.52
2022-12-01T02:30:46.496Z,87.01
2022-12-01T02:33:20.921Z,87.73
2022-12-01T02:35:53.565Z,86.22
2022-12-01T02:38:30.820Z,85.16
2022-12-01T02:41:06.871Z,85.08
2022-12-01T02:43:36.045Z,84.83
2022-12-01T02:46:12.325Z,85.25
2022-12-01T02:48:43.077Z,85.08
2022-12-01T02:51:15.477Z,85.16
2022-12-01T02:53:44.673Z,85.33
2022-12-01T02:56:16.127Z,86.01
2022-12-01T02:58:44.679Z,86.44
2022-12-01T03:01:50.912Z,86.38
2022-12-01T03:04:47.407Z,86.17
2022-12-01T03:07:33.248Z,86.12
2022-12-01T03:10:07.455Z,86.09
2022-12-01T03:12:42.602Z,86.37
2022-12-01T03:15:18.852Z,87.12
2022-12-01T03:17:55.079Z,87.77
2022-12-01T03:20:29.990Z,87.84
2022-12-01T03:23:02.313Z,88.29
2022-12-01T03:25:32.036Z,88.67
2022-12-01T03:28:22.162Z,88.96
2022-12-01T03:30:53.824Z,89.15
2022-12-01T03:33:28.606Z,88.86
2022-12-01T03:36:00.979Z,88.80
2022-12-01T03:38:30.699Z,88.36
2022-12-01T03:41:03.127Z,86.54
2022-12-01T03:43:35.527Z,85.76
2022-12-01T03:46:11.102Z,85.29
2022-12-01T03:48:41.557Z,85.72
2022-12-01T03:51:15.233Z,85.21
2022-12-01T03:53:52.397Z,85.10
2022-12-01T03:56:22.769Z,83.99
2022-12-01T03:58:56.379Z,83.58
2022-12-01T04:01:26.553Z,82.52
2022-12-01T04:03:55.998Z,79.31
2022-12-01T04:06:24.011Z,79.24
2022-12-01T04:08:52.062Z,79.22
2022-12-01T04:11:37.553Z,78.88
2022-12-01T04:14:05.556Z,77.84
2022-12-01T04:16:35.523Z,77.87
2022-12-01T04:19:08.344Z,78.81
2022-12-01T04:21:36.345Z,77.91
2022-12-01T04:24:44.553Z,79.19
2022-12-01T04:28:19.795Z,79.61
2022-12-01T04:31:12.514Z,80.64
2022-12-01T04:33:40.539Z,81.13
2022-12-01T04:36:11.481Z,81.61
2022-12-01T04:38:40.445Z,81.35
2022-12-01T04:41:11.534Z,81.40
2022-12-01T04:43:46.349Z,81.00
2022-12-01T04:46:19.405Z,80.58
2022-12-01T04:48:47.335Z,80.17
2022-12-01T04:51:17.891Z,80.70
2022-12-01T04:53:48.082Z,80.47
2022-12-01T04:56:20.062Z,80.46
2022-12-01T04:58:48.054Z,81.29
2022-12-01T05:01:18.191Z,81.15
2022-12-01T05:03:52.327Z,81.34
2022-12-01T05:06:23.554Z,80.77
2022-12-01T05:08:52.456Z,80.92
2022-12-01T05:11:21.506Z,80.84
2022-12-01T05:13:50.422Z,81.95
2022-12-01T05:16:21.783Z,82.67
2022-12-01T05:18:51.245Z,83.06
2022-12-01T05:21:18.402Z,83.14
2022-12-01T05:23:48.888Z,83.32
2022-12-01T05:26:17.945Z,83.53
2022-12-01T05:28:45.875Z,83.88
2022-12-01T05:31:13.921Z,84.26
2022-12-01T05:33:41.871Z,83.97
2022-12-01T05:36:10.627Z,83.59
2022-12-01T05:38:38.636Z,84.06
2022-12-01T05:41:08.112Z,84.29
2022-12-01T05:43:36.370Z,84.20
2022-12-01T05:46:04.486Z,84.55
2022-12-01T05:48:32.516Z,84.52
2022-12-01T05:51:01.553Z,84.11
2022-12-01T05:53:29.561Z,84.35
2022-12-01T05:55:57.596Z,84.44
2022-12-01T05:58:26.997Z,84.85
2022-12-01T06:00:55.279Z,85.28
2022-12-01T06:03:23.321Z,85.45
2022-12-01T06:05:51.737Z,86.26
2022-12-01T06:08:21.795Z,86.03
2022-12-01T06:10:51.180Z,86.30
2022-12-01T06:13:19.193Z,85.57
2022-12-01T06:15:57.215Z,85.93
2022-12-01T06:18:27.261Z,86.03
2022-12-01T06:20:59.005Z,85.60
2022-12-01T06:23:31.423Z,86.27
2022-12-01T06:25:59.738Z,86.60
2022-12-01T06:28:28.759Z,86.78
2022-12-01T06:31:03.216Z,86.94
2022-12-01T06:33:32.008Z,86.93
2022-12-01T06:36:01.743Z,87.17
2022-12-01T06:38:32.878Z,87.22
2022-12-01T06:41:01.167Z,87.39
2022-12-01T06:43:29.119Z,88.00
2022-12-01T06:46:02.045Z,88.12
2022-12-01T06:48:32.679Z,87.88
2022-12-01T06:51:05.057Z,87.73
2022-12-01T06:53:34.102Z,88.22
2022-12-01T06:56:02.226Z,88.59
2022-12-01T06:58:30.594Z,88.93
2022-12-01T07:01:00.351Z,89.43
2022-12-01T07:03:28.445Z,89.21
2022-12-01T07:05:58.777Z,88.77
2022-12-01T07:08:27.309Z,88.82
2022-12-01T07:11:00.502Z,88.71
2022-12-01T07:13:33.690Z,88.63
2022-12-01T07:16:04.117Z,88.25
2022-12-01T07:18:33.043Z,88.26
2022-12-01T07:21:02.587Z,88.37
2022-12-01T07:23:36.315Z,88.29
2022-12-01T07:26:06.925Z,88.17
2022-12-01T07:28:35.193Z,88.26
2022-12-01T07:31:07.615Z,88.31
2022-12-01T07:33:36.472Z,88.61
2022-12-01T07:36:05.771Z,88.55
2022-12-01T07:38:35.543Z,88.38
2022-12-01T07:41:04.653Z,87.75
2022-12-01T07:43:36.183Z,87.78
2022-12-01T07:46:14.686Z,88.69
2022-12-01T07:48:47.031Z,88.31
2022-12-01T07:51:17.293Z,88.89
2022-12-01T07:53:46.283Z,88.44
2022-12-01T07:56:17.046Z,89.11
2022-12-01T07:58:45.530Z,88.38
2022-12-01T08:01:17.170Z,89.43
2022-12-01T08:03:46.268Z,88.55
2022-12-01T08:06:14.335Z,88.92
2022-12-01T08:08:42.880Z,88.63
2022-12-01T08:11:13.924Z,87.91
2022-12-01T08:13:46.161Z,87.89
2022-12-01T08:16:19.277Z,88.05
2022-12-01T08:18:47.474Z,88.45
2022-12-01T08:21:18.756Z,88.67
2022-12-01T08:23:47.302Z,87.95
2022-12-01T08:26:17.347Z,87.68
2022-12-01T08:28:46.843Z,86.58
2022-12-01T08:31:18.799Z,87.24
2022-12-01T08:33:47.442Z,86.42
2022-12-01T08:36:15.756Z,86.99
2022-12-01T08:38:45.734Z,85.54
2022-12-01T08:41:14.719Z,84.96
2022-12-01T08:44:00.966Z,84.84
2022-12-01T08:46:33.620Z,83.73
2022-12-01T08:49:02.222Z,82.83
2022-12-01T08:51:30.672Z,82.09
2022-12-01T08:54:00.385Z,81.96
2022-12-01T08:56:30.673Z,81.97
2022-12-01T08:58:59.046Z,82.54
2022-12-01T09:01:27.186Z,80.84
2022-12-01T09:04:08.695Z,80.79
2022-12-01T09:06:41.242Z,81.93
2022-12-01T09:09:14.545Z,80.84
2022-12-01T09:11:43.900Z,80.49
2022-12-01T09:14:12.449Z,80.97
2022-12-01T09:16:41.040Z,81.45
2022-12-01T09:19:13.063Z,80.63
2022-12-01T09:21:42.781Z,80.45
2022-12-01T09:24:12.436Z,80.39
2022-12-01T09:26:40.509Z,79.72
2022-12-01T09:29:10.891Z,79.64
2022-12-01T09:31:40.545Z,78.79
2022-12-01T09:34:13.154Z,79.38
2022-12-01T09:36:41.702Z,78.49
2022-12-01T09:39:13.132Z,78.93
2022-12-01T09:41:46.301Z,79.15
2022-12-01T09:44:22.023Z,79.43
2022-12-01T09:46:54.881Z,78.77
2022-12-01T09:49:32.296Z,76.95
2022-12-01T09:52:01.375Z,75.00
2022-12-01T09:54:30.451Z,74.78
2022-12-01T09:57:00.375Z,75.44
2022-12-01T09:59:34.073Z,74.28
2022-12-01T10:02:04.464Z,74.33
2022-12-01T10:04:37.490Z,74.17
2022-12-01T10:07:12.445Z,71.88
2022-12-01T10:09:48.862Z,72.60
2022-12-01T10:12:19.428Z,71.56
2022-12-01T10:14:49.490Z,72.30
2022-12-01T10:17:29.306Z,70.36
2022-12-01T10:20:04.252Z,71.96
2022-12-01T10:23:10.006Z,72.10
2022-12-01T10:25:46.595Z,73.90
2022-12-01T10:28:36.294Z,72.89
2022-12-01T10:31:12.552Z,72.78
2022-12-01T10:33:47.779Z,73.64
2022-12-01T10:36:17.077Z,74.19
2022-12-01T10:38:45.091Z,74.60
2022-12-01T10:41:16.409Z,73.47
2022-12-01T10:43:47.172Z,73.80
2022-12-01T10:46:23.771Z,73.72
2022-12-01T10:48:56.847Z,72.02
2022-12-01T10:51:27.974Z,72.27
2022-12-01T10:54:00.922Z,72.30
2022-12-01T10:56:29.352Z,71.10
2022-12-01T10:58:59.711Z,69.21
2022-12-01T11:01:31.043Z,67.97
2022-12-01T11:04:14.568Z,67.04
2022-12-01T11:06:50.937Z,65.84
2022-12-01T11:09:26.213Z,65.93
2022-12-01T11:11:59.426Z,64.37
2022-12-01T11:14:36.520Z,63.02
2022-12-01T11:17:18.045Z,64.10
2022-12-01T11:19:46.268Z,61.47
2022-12-01T11:22:23.204Z,62.63
2022-12-01T11:24:59.612Z,61.99
2022-12-01T11:27:30.948Z,61.04
2022-12-01T11:30:02.822Z,62.07
2022-12-01T11:32:35.093Z,62.82
2022-12-01T11:35:07.160Z,62.60
2022-12-01T11:37:39.550Z,64.03
2022-12-01T11:40:14.962Z,64.65
2022-12-01T11:42:47.774Z,63.77
2022-12-01T11:45:27.284Z,64.99
2022-12-01T11:48:05.042Z,63.33
2022-12-01T11:50:35.513Z,63.13
2022-12-01T11:53:05.714Z,63.01
2022-12-01T11:55:34.245Z,64.81
2022-12-01T11:58:05.246Z,64.55
2022-12-01T12:00:44.920Z,63.07
2022-12-01T12:03:22.598Z,63.08
2022-12-01T12:06:31.798Z,62.08
2022-12-01T12:09:25.820Z,62.81
2022-12-01T12:12:08.370Z,63.42
2022-12-01T12:14:48.620Z,61.84
2022-12-01T12:17:29.386Z,61.57
2022-12-01T12:20:09.617Z,62.89
2022-12-01T12:22:55.199Z,60.96
2022-12-01T12:25:31.783Z,60.15
2022-12-01T12:28:07.680Z,60.90
2022-12-01T12:30:43.870Z,59.21
2022-12-01T12:33:38.466Z,60.10
2022-12-01T12:36:16.350Z,61.12
2022-12-01T12:38:58.314Z,61.80
2022-12-01T12:41:32.989Z,61.18
2022-12-01T12:44:35.384Z,61.77
2022-12-01T12:47:10.637Z,62.06
2022-12-01T12:49:45.545Z,62.55
2022-12-01T12:52:17.249Z,61.72
2022-12-01T12:54:51.963Z,60.31
2022-12-01T12:57:28.617Z,60.97
2022-12-01T13:00:01.458Z,62.54
2022-12-01T13:02:36.265Z,62.26
2022-12-01T13:05:10.430Z,60.66
2022-12-01T13:07:44.256Z,61.04
2022-12-01T13:10:23.216Z,62.22
2022-12-01T13:12:58.195Z,61.81
2022-12-01T13:15:30.732Z,61.42
2022-12-01T13:18:04.706Z,60.84
2022-12-01T13:20:35.166Z,61.59
2022-12-01T13:23:04.334Z,61.55
2022-12-01T13:25:36.155Z,62.50
2022-12-01T13:28:06.750Z,62.60
2022-12-01T13:30:36.179Z,63.13
2022-12-01T13:33:06.708Z,63.15
2022-12-01T13:35:37.493Z,64.31
2022-12-01T13:38:24.896Z,64.11
2022-12-01T13:41:11.584Z,64.34
2022-12-01T13:43:54.490Z,64.55
2022-12-01T13:46:27.764Z,64.67
2022-12-01T13:48:58.079Z,65.20
2022-12-01T13:51:27.054Z,65.24
2022-12-01T13:54:05.507Z,66.10
2022-12-01T13:56:41.153Z,65.48
2022-12-01T13:59:40.815Z,66.25
2022-12-01T14:02:18.375Z,66.40
2022-12-01T14:04:48.336Z,67.13
2022-12-01T14:07:35.836Z,67.43
2022-12-01T14:10:26.397Z,68.12
2022-12-01T14:12:59.405Z,68.44
2022-12-01T14:15:40.427Z,68.56
2022-12-01T14:18:23.861Z,68.54
2022-12-01T14:20:52.219Z,68.78
2022-12-01T14:23:29.294Z,69.44
2022-12-01T14:26:12.856Z,69.56
2022-12-01T14:29:10.984Z,70.03
2022-12-01T14:32:19.468Z,70.81
2022-12-01T14:34:52.697Z,71.29
2022-12-01T14:37:23.021Z,71.78
2022-12-01T14:39:57.328Z,72.40
2022-12-01T14:42:48.490Z,72.50
2022-12-01T14:45:23.038Z,72.57
2022-12-01T14:47:58.236Z,72.96
2022-12-01T14:50:35.461Z,73.30
2022-12-01T14:53:10.373Z,73.31
2022-12-01T14:55:41.720Z,73.55
2022-12-01T14:58:16.698Z,73.17
2022-12-01T15:00:57.974Z,73.42
2022-12-01T15:03:32.006Z,75.46
2022-12-01T15:06:01.717Z,76.85
2022-12-01T15:09:04.109Z,77.25
2022-12-01T15:11:26.068Z,78.12
2022-12-01T15:13:55.613Z,79.31
2022-12-01T15:16:27.501Z,79.32
2022-12-01T15:18:57.893Z,79.69
2022-12-01T15:21:29.396Z,79.77
2022-12-01T15:24:00.897Z,79.79
2022-12-01T15:26:32.055Z,80.40
2022-12-01T15:29:14.627Z,81.02
2022-12-01T15:31:44.063Z,81.29
2022-12-01T15:34:17.285Z,81.43
2022-12-01T15:36:48.538Z,81.44
2022-12-01T15:39:18.221Z,81.52
2022-12-01T15:41:53.813Z,81.71
2022-12-01T15:44:27.327Z,81.54
2022-12-01T15:46:55.809Z,81.41
2022-12-01T15:49:29.705Z,80.90
2022-12-01T15:52:12.515Z,80.81
2022-12-01T15:54:41.046Z,81.01
2022-12-01T15:57:09.387Z,80.69
2022-12-01T15:59:45.072Z,80.77
2022-12-01T16:02:27.435Z,80.61
2022-12-01T16:05:05.527Z,81.04
2022-12-01T16:08:12.126Z,81.56
2022-12-01T16:10:30.756Z,81.91
2022-12-01T16:13:47.713Z,82.04
2022-12-01T16:16:41.040Z,81.79
2022-12-01T16:19:28.176Z,81.75
2022-12-01T16:22:00.473Z,82.04
2022-12-01T16:24:32.442Z,81.90
2022-12-01T16:27:03.397Z,82.22
2022-12-01T16:29:35.672Z,82.57
2022-12-01T16:32:20.152Z,82.78
2022-12-01T16:34:50.214Z,83.46
2022-12-01T16:37:18.780Z,84.20
2022-12-01T16:39:48.749Z,84.94
2022-12-01T16:42:18.828Z,85.52
2022-12-01T16:44:48.721Z,86.41
2022-12-01T16:47:20.407Z,86.61
2022-12-01T16:49:48.826Z,87.00
2022-12-01T16:52:43.546Z,87.25
2022-12-01T16:55:26.013Z,87.31
2022-12-01T16:57:55.456Z,87.45
2022-12-01T17:00:24.007Z,87.79
2022-12-01T17:02:53.725Z,87.85
2022-12-01T17:05:22.084Z,87.24
2022-12-01T17:07:50.425Z,85.99
2022-12-01T17:10:20.170Z,86.57
2022-12-01T17:12:48.204Z,87.18
2022-12-01T17:15:16.407Z,87.37
2022-12-01T17:17:44.563Z,87.23
2022-12-01T17:20:13.204Z,87.18
2022-12-01T17:22:41.273Z,86.88
2022-12-01T17:25:10.877Z,86.92
2022-12-01T17:27:42.004Z,87.01
2022-12-01T17:30:11.017Z,86.50
2022-12-01T17:32:39.618Z,86.22
2022-12-01T17:35:08.620Z,85.96
2022-12-01T17:37:38.669Z,86.05
2022-12-01T17:40:08.793Z,86.16
2022-12-01T17:42:37.180Z,86.15
2022-12-01T17:45:07.925Z,86.17
2022-12-01T17:47:36.154Z,85.79
2022-12-01T17:50:04.557Z,85.65
2022-12-01T17:52:32.758Z,85.76
2022-12-01T17:55:00.919Z,85.64
2022-12-01T17:57:29.080Z,85.62
2022-12-01T17:59:57.264Z,85.83
2022-12-01T18:02:26.674Z,86.09
2022-12-01T18:04:55.058Z,86.27
2022-12-01T18:07:23.380Z,86.18
2022-12-01T18:09:51.562Z,86.43
2022-12-01T18:12:19.828Z,85.83
2022-12-01T18:14:48.045Z,85.95
2022-12-01T18:20:46.558Z,86.46
2022-12-01T18:23:14.802Z,86.45
2022-12-01T18:25:42.937Z,86.51
2022-12-01T18:28:11.474Z,86.72
2022-12-01T18:46:40.413Z,87.32
2022-12-01T18:53:23.142Z,88.21
2022-12-01T18:55:51.424Z,88.35
2022-12-01T18:58:19.477Z,88.86
2022-12-01T19:00:47.635Z,88.76
2022-12-01T19:03:17.192Z,89.03
2022-12-01T19:05:45.302Z,89.55
2022-12-01T19:08:13.435Z,89.92
2022-12-01T19:10:41.605Z,90.48
2022-12-01T19:13:09.769Z,90.91
2022-12-01T19:15:38.570Z,90.50
2022-12-01T19:18:06.731Z,90.57
2022-12-01T19:20:39.766Z,90.32
2022-12-01T19:23:07.817Z,89.77
2022-12-01T19:25:38.915Z,88.51
2022-12-01T19:28:07.148Z,88.44
2022-12-01T19:30:35.609Z,88.66
2022-12-01T19:33:03.790Z,88.51
2022-12-01T19:35:32.825Z,88.65
2022-12-01T19:38:02.272Z,89.11
2022-12-01T19:40:39.124Z,89.22
2022-12-01T19:43:07.388Z,90.20
2022-12-01T19:45:38.691Z,90.54
2022-12-01T19:48:07.826Z,90.31
2022-12-01T19:50:36.698Z,90.18
2022-12-01T19:53:06.263Z,90.12
2022-12-01T19:55:34.671Z,90.04
2022-12-01T19:58:04.122Z,89.91
2022-12-01T20:00:32.775Z,89.66
2022-12-01T20:03:01.806Z,89.52
2022-12-01T20:05:29.941Z,89.43
2022-12-01T20:07:58.498Z,89.43
2022-12-01T20:10:28.094Z,89.64
2022-12-01T20:12:56.276Z,89.47
2022-12-01T20:15:24.547Z,89.50
2022-12-01T20:17:53.926Z,88.95
2022-12-01T20:20:26.126Z,89.04
2022-12-01T20:22:54.404Z,89.08
2022-12-01T20:25:22.835Z,89.26
2022-12-01T20:27:52.513Z,89.23
2022-12-01T20:30:20.789Z,89.24
2022-12-01T20:32:49.978Z,89.26
2022-12-01T20:35:20.294Z,89.16
2022-12-01T20:37:52.823Z,89.35
2022-12-01T20:40:22.436Z,89.29
2022-12-01T20:42:52.544Z,89.28
2022-12-01T20:45:21.114Z,89.17
2022-12-01T20:47:51.888Z,88.61
2022-12-01T20:50:20.298Z,88.22
2022-12-01T20:52:48.585Z,88.75
2022-12-01T20:55:16.926Z,89.49
2022-12-01T20:57:45.638Z,89.37
2022-12-01T21:00:18.670Z,89.29
2022-12-01T21:02:48.160Z,89.16
2022-12-01T21:05:16.437Z,89.08
2022-12-01T21:07:44.951Z,89.06
2022-12-01T21:10:18.483Z,89.06
2022-12-01T21:13:09.447Z,89.14
2022-12-01T21:15:52.179Z,89.26
2022-12-01T21:18:23.430Z,89.10
2022-12-01T21:20:57.748Z,89.64
2022-12-01T21:23:28.328Z,90.29
2022-12-01T21:25:57.258Z,90.45
2022-12-01T21:28:27.109Z,91.05
2022-12-01T21:31:01.367Z,91.89
2022-12-01T21:33:33.367Z,91.52
2022-12-01T21:36:03.221Z,91.52
2022-12-01T21:38:33.239Z,91.14
2022-12-01T21:41:02.884Z,90.88
2022-12-01T21:43:37.945Z,90.61
2022-12-01T21:46:16.276Z,90.52
2022-12-01T21:48:46.110Z,90.35
2022-12-01T21:51:20.127Z,89.89
2022-12-01T21:53:49.203Z,89.90
2022-12-01T21:56:22.156Z,89.69
2022-12-01T21:58:52.893Z,89.26
2022-12-01T22:01:28.389Z,89.36
2022-12-01T22:04:01.790Z,89.46
2022-12-01T22:06:37.037Z,90.03
2022-12-01T22:09:20.715Z,89.83
2022-12-01T22:11:52.670Z,90.31
2022-12-01T22:14:23.030Z,90.27
2022-12-01T22:16:55.990Z,90.18
2022-12-01T22:19:28.852Z,90.16
2022-12-01T22:22:01.890Z,90.17
2022-12-01T22:24:45.009Z,91.03
2022-12-01T22:27:27.334Z,90.84
2022-12-01T22:29:59.166Z,90.93
2022-12-01T22:32:53.368Z,91.01
2022-12-01T22:35:30.137Z,91.05
2022-12-01T22:38:20.203Z,90.84
2022-12-01T22:40:56.063Z,90.70
2022-12-01T22:43:31.344Z,90.60
2022-12-01T22:46:11.610Z,90.64
2022-12-01T22:48:46.115Z,90.22
2022-12-01T22:51:23.891Z,90.11
2022-12-01T22:53:58.729Z,90.39
2022-12-01T22:56:40.547Z,90.31
2022-12-01T22:59:16.231Z,89.98
2022-12-01T23:01:50.180Z,90.15
2022-12-01T23:04:27.375Z,90.40
2022-12-01T23:06:59.678Z,91.02
2022-12-01T23:09:33.330Z,91.50
2022-12-01T23:12:07.106Z,91.73
2022-12-01T23:14:35.785Z,91.76
2022-12-01T23:17:08.286Z,91.41
2022-12-01T23:19:37.706Z,91.44
2022-12-01T23:22:05.865Z,91.58
2022-12-01T23:24:35.097Z,91.51
2022-12-01T23:27:03.252Z,91.59
2022-12-01T23:29:32.064Z,91.72
2022-12-01T23:32:00.259Z,91.56
2022-12-01T23:34:29.403Z,91.38
2022-12-01T23:36:58.813Z,91.53
2022-12-01T23:39:31.917Z,91.53
2022-12-01T23:42:00.339Z,91.80
2022-12-01T23:44:45.797Z,91.70
2022-12-01T23:47:19.023Z,91.81
2022-12-01T23:49:48.264Z,92.12
2022-12-01T23:52:21.521Z,91.88
2022-12-01T23:54:50.065Z,91.69
2022-12-01T23:57:23.853Z,91.71
2022-12-01T23:59:56.003Z,91.71
